createdAt,value
2022-08-23T00:01:34.580Z,25.40
2022-08-23T00:04:11.527Z,25.40
2022-08-23T00:06:39.835Z,25.40
2022-08-23T00:09:07.484Z,25.40
2022-08-23T00:11:47.653Z,25.30
2022-08-23T00:14:28.066Z,25.10
2022-08-23T00:16:56.390Z,25.10
2022-08-23T00:19:24.435Z,25.00
2022-08-23T00:21:53.010Z,24.90
2022-08-23T00:24:21.041Z,24.90
2022-08-23T00:27:08.337Z,24.90
2022-08-23T00:29:42.558Z,24.80
2022-08-23T00:32:12.947Z,24.80
2022-08-23T00:34:40.359Z,24.70
2022-08-23T00:37:08.851Z,24.70
2022-08-23T00:39:35.984Z,24.60
2022-08-23T00:42:35.080Z,24.50
2022-08-23T00:45:23.521Z,24.60
2022-08-23T00:47:52.409Z,24.50
2022-08-23T00:50:29.769Z,24.50
2022-08-23T00:53:06.756Z,24.40
2022-08-23T00:55:34.846Z,24.30
2022-08-23T00:58:02.174Z,24.30
2022-08-23T01:00:29.774Z,24.30
2022-08-23T01:02:57.710Z,24.20
2022-08-23T01:05:34.639Z,24.20
2022-08-23T01:08:02.122Z,24.20
2022-08-23T01:10:35.427Z,24.10
2022-08-23T01:13:15.331Z,24.00
2022-08-23T01:15:50.783Z,24.00
2022-08-23T01:18:21.844Z,23.90
2022-08-23T01:21:00.063Z,23.90
2022-08-23T01:23:45.671Z,23.90
2022-08-23T01:26:15.938Z,23.80
2022-08-23T01:28:49.108Z,23.80
2022-08-23T01:31:16.884Z,23.70
2022-08-23T01:33:48.333Z,23.70
2022-08-23T01:36:17.036Z,23.70
2022-08-23T01:38:43.839Z,23.70
2022-08-23T01:41:10.624Z,23.70
2022-08-23T01:43:37.812Z,23.70
2022-08-23T01:46:14.695Z,23.60
2022-08-23T01:48:41.537Z,23.70
2022-08-23T01:51:08.415Z,23.60
2022-08-23T01:53:35.234Z,23.60
2022-08-23T01:56:02.133Z,23.60
2022-08-23T01:58:31.391Z,23.60
2022-08-23T02:00:58.500Z,23.50
2022-08-23T02:03:25.910Z,23.40
2022-08-23T02:08:43.296Z,23.40
2022-08-23T02:11:12.749Z,23.30
2022-08-23T02:13:39.574Z,23.20
2022-08-23T02:16:06.630Z,23.20
2022-08-23T02:18:33.617Z,23.20
2022-08-23T02:21:00.545Z,23.20
2022-08-23T02:23:28.905Z,23.30
2022-08-23T02:25:55.907Z,23.30
2022-08-23T02:28:24.343Z,23.30
2022-08-23T02:30:52.086Z,23.30
2022-08-23T02:33:19.398Z,23.20
2022-08-23T02:35:47.336Z,23.10
2022-08-23T02:38:14.270Z,23.10
2022-08-23T02:40:42.294Z,23.10
2022-08-23T02:43:10.187Z,23.00
2022-08-23T02:45:37.772Z,23.00
2022-08-23T02:48:05.094Z,23.00
2022-08-23T02:50:31.910Z,23.00
2022-08-23T02:52:59.348Z,22.90
2022-08-23T02:55:26.397Z,23.00
2022-08-23T02:57:53.196Z,23.00
2022-08-23T03:00:20.354Z,23.00
2022-08-23T03:02:48.313Z,23.10
2022-08-23T03:05:16.139Z,23.10
2022-08-23T03:07:42.991Z,23.00
2022-08-23T03:10:11.017Z,23.00
2022-08-23T03:12:38.173Z,23.00
2022-08-23T03:15:06.804Z,22.90
2022-08-23T03:17:34.610Z,22.80
2022-08-23T03:20:01.439Z,22.60
2022-08-23T03:22:28.291Z,22.60
2022-08-23T03:24:55.221Z,22.50
2022-08-23T03:27:21.930Z,22.50
2022-08-23T03:29:48.825Z,22.50
2022-08-23T03:32:15.995Z,22.40
2022-08-23T03:34:43.989Z,22.40
2022-08-23T03:37:10.862Z,22.40
2022-08-23T03:39:37.967Z,22.40
2022-08-23T03:42:05.367Z,22.30
2022-08-23T03:44:32.946Z,22.30
2022-08-23T03:46:59.722Z,22.20
2022-08-23T03:49:26.860Z,22.20
2022-08-23T03:51:53.644Z,22.10
2022-08-23T03:54:20.736Z,22.20
2022-08-23T03:57:02.593Z,22.20
2022-08-23T03:59:31.342Z,22.30
2022-08-23T04:01:58.139Z,22.30
2022-08-23T04:04:24.947Z,22.40
2022-08-23T04:06:51.669Z,22.50
2022-08-23T04:09:18.497Z,22.50
2022-08-23T04:11:45.450Z,22.60
2022-08-23T04:14:13.182Z,22.60
2022-08-23T04:16:40.380Z,22.60
2022-08-23T04:19:09.334Z,22.60
2022-08-23T04:21:38.178Z,22.70
2022-08-23T04:24:05.146Z,22.60
2022-08-23T04:26:33.628Z,22.60
2022-08-23T04:29:00.919Z,22.50
2022-08-23T04:31:28.592Z,22.40
2022-08-23T04:34:01.719Z,22.40
2022-08-23T04:36:34.963Z,22.40
2022-08-23T04:39:01.724Z,22.30
2022-08-23T04:41:46.902Z,22.30
2022-08-23T04:44:14.769Z,22.30
2022-08-23T04:46:43.676Z,22.30
2022-08-23T04:49:12.078Z,22.30
2022-08-23T04:51:39.308Z,22.20
2022-08-23T04:54:07.769Z,22.20
2022-08-23T04:56:35.244Z,22.20
2022-08-23T04:59:03.043Z,22.20
2022-08-23T05:01:30.027Z,22.20
2022-08-23T05:03:57.082Z,22.20
2022-08-23T05:06:24.928Z,22.20
2022-08-23T05:08:51.730Z,22.20
2022-08-23T05:11:19.079Z,22.20
2022-08-23T05:13:46.071Z,22.20
2022-08-23T05:16:14.013Z,22.20
2022-08-23T05:18:41.118Z,22.20
2022-08-23T05:21:07.932Z,22.20
2022-08-23T05:23:34.862Z,22.20
2022-08-23T05:26:01.995Z,22.20
2022-08-23T05:28:32.794Z,22.10
2022-08-23T05:31:15.168Z,22.20
2022-08-23T05:33:43.201Z,22.20
2022-08-23T05:36:12.243Z,22.20
2022-08-23T05:38:40.382Z,22.30
2022-08-23T05:41:08.165Z,22.30
2022-08-23T05:43:35.563Z,22.30
2022-08-23T05:46:06.650Z,22.40
2022-08-23T05:48:40.988Z,22.50
2022-08-23T05:51:27.167Z,22.50
2022-08-23T05:53:57.984Z,22.60
2022-08-23T05:56:31.444Z,22.60
2022-08-23T05:59:01.211Z,22.70
2022-08-23T06:01:29.704Z,22.70
2022-08-23T06:03:59.359Z,22.80
2022-08-23T06:06:36.388Z,22.90
2022-08-23T06:09:06.706Z,23.00
2022-08-23T06:11:33.713Z,23.00
2022-08-23T06:14:03.444Z,23.10
2022-08-23T06:16:38.019Z,23.10
2022-08-23T06:19:06.830Z,23.20
2022-08-23T06:21:34.295Z,23.20
2022-08-23T06:24:01.888Z,23.30
2022-08-23T06:26:34.154Z,23.30
2022-08-23T06:29:03.778Z,23.30
2022-08-23T06:31:47.018Z,23.30
2022-08-23T06:34:21.604Z,23.40
2022-08-23T06:36:51.456Z,23.40
2022-08-23T06:39:20.042Z,23.50
2022-08-23T06:41:50.173Z,23.50
2022-08-23T06:44:18.895Z,23.60
2022-08-23T06:46:47.929Z,23.60
2022-08-23T06:49:15.095Z,23.60
2022-08-23T06:51:44.817Z,23.60
2022-08-23T06:54:15.859Z,23.70
2022-08-23T06:56:44.082Z,23.80
2022-08-23T06:59:12.183Z,23.80
2022-08-23T07:01:54.936Z,23.90
2022-08-23T07:04:24.853Z,23.90
2022-08-23T07:06:51.774Z,23.90
2022-08-23T07:09:21.211Z,23.90
2022-08-23T07:11:48.396Z,24.00
2022-08-23T07:14:20.166Z,24.10
2022-08-23T07:16:50.312Z,24.10
2022-08-23T07:19:19.059Z,24.20
2022-08-23T07:21:47.676Z,24.20
2022-08-23T07:24:18.227Z,24.20
2022-08-23T07:26:47.490Z,24.30
2022-08-23T07:29:15.350Z,24.40
2022-08-23T07:31:48.483Z,24.50
2022-08-23T07:34:15.681Z,24.50
2022-08-23T07:36:45.054Z,24.50
2022-08-23T07:39:13.320Z,24.60
2022-08-23T07:41:40.418Z,24.60
2022-08-23T07:44:09.277Z,24.70
2022-08-23T07:46:39.761Z,24.70
2022-08-23T07:49:07.047Z,24.70
2022-08-23T07:51:35.275Z,24.70
2022-08-23T07:54:07.520Z,24.80
2022-08-23T07:56:36.162Z,24.90
2022-08-23T07:59:03.985Z,24.90
2022-08-23T08:01:31.145Z,24.90
2022-08-23T08:04:00.028Z,24.90
2022-08-23T08:06:46.248Z,24.90
2022-08-23T08:09:15.284Z,24.90
2022-08-23T08:11:44.492Z,25.00
2022-08-23T08:14:12.208Z,25.00
2022-08-23T08:16:47.626Z,25.10
2022-08-23T08:19:18.808Z,25.10
2022-08-23T08:21:47.266Z,25.20
2022-08-23T08:24:16.546Z,25.30
2022-08-23T08:26:44.352Z,25.40
2022-08-23T08:29:12.101Z,25.40
2022-08-23T08:31:41.468Z,25.50
2022-08-23T08:34:09.442Z,25.50
2022-08-23T08:36:42.455Z,25.50
2022-08-23T08:39:15.427Z,25.60
2022-08-23T08:42:04.619Z,25.70
2022-08-23T08:44:46.152Z,25.80
2022-08-23T08:47:22.263Z,25.90
2022-08-23T08:49:52.638Z,25.80
2022-08-23T08:52:32.382Z,25.90
2022-08-23T08:55:10.817Z,25.90
2022-08-23T08:57:43.831Z,26.00
2022-08-23T09:00:17.525Z,26.10
2022-08-23T09:02:45.277Z,26.20
2022-08-23T09:05:36.839Z,26.30
2022-08-23T09:08:03.714Z,26.40
2022-08-23T09:10:30.522Z,26.40
2022-08-23T09:13:21.443Z,26.40
2022-08-23T09:16:13.090Z,26.50
2022-08-23T09:18:39.993Z,26.50
2022-08-23T09:21:08.767Z,26.60
2022-08-23T09:24:00.366Z,26.70
2022-08-23T09:26:30.636Z,26.80
2022-08-23T09:29:21.603Z,26.80
2022-08-23T09:31:58.393Z,26.90
2022-08-23T09:34:37.114Z,26.90
2022-08-23T09:37:06.908Z,27.00
2022-08-23T09:39:37.305Z,27.00
2022-08-23T09:42:08.617Z,27.10
2022-08-23T09:44:41.950Z,27.20
2022-08-23T09:47:12.786Z,27.20
2022-08-23T09:49:41.311Z,27.30
2022-08-23T09:52:32.390Z,27.30
2022-08-23T09:55:24.875Z,27.30
2022-08-23T09:57:52.202Z,27.40
2022-08-23T10:00:23.642Z,27.50
2022-08-23T10:02:51.391Z,27.60
2022-08-23T10:05:39.725Z,27.80
2022-08-23T10:08:10.297Z,27.90
2022-08-23T10:10:51.725Z,27.90
2022-08-23T10:13:18.739Z,27.90
2022-08-23T10:16:11.934Z,27.80
2022-08-23T10:18:57.498Z,27.80
2022-08-23T10:21:39.541Z,27.90
2022-08-23T10:24:14.591Z,28.00
2022-08-23T10:27:03.731Z,28.00
2022-08-23T10:29:40.935Z,28.10
2022-08-23T10:32:15.779Z,28.20
2022-08-23T10:34:50.919Z,28.30
2022-08-23T10:37:42.380Z,28.40
2022-08-23T10:40:19.293Z,28.40
2022-08-23T10:42:59.017Z,28.40
2022-08-23T10:45:30.209Z,28.50
2022-08-23T10:48:29.290Z,28.50
2022-08-23T10:51:11.529Z,28.50
2022-08-23T10:53:46.267Z,28.60
2022-08-23T10:56:19.109Z,28.50
2022-08-23T10:59:15.263Z,28.50
2022-08-23T11:01:52.852Z,28.60
2022-08-23T11:04:44.517Z,28.50
2022-08-23T11:07:37.306Z,28.60
2022-08-23T11:10:31.842Z,28.60
2022-08-23T11:13:02.253Z,28.70
2022-08-23T11:15:37.609Z,28.80
2022-08-23T11:18:36.120Z,28.90
2022-08-23T11:21:25.969Z,28.90
2022-08-23T11:24:16.399Z,28.90
2022-08-23T11:26:46.131Z,28.80
2022-08-23T11:29:24.578Z,28.90
2022-08-23T11:32:06.655Z,28.90
2022-08-23T11:34:33.383Z,28.90
2022-08-23T11:37:18.941Z,28.90
2022-08-23T11:39:58.166Z,29.10
2022-08-23T11:42:40.199Z,29.20
2022-08-23T11:45:27.186Z,29.40
2022-08-23T11:48:11.224Z,29.30
2022-08-23T11:51:15.165Z,29.40
2022-08-23T11:53:55.200Z,29.50
2022-08-23T11:56:59.168Z,29.50
2022-08-23T11:59:57.441Z,29.50
2022-08-23T12:02:32.142Z,29.40
2022-08-23T12:05:02.660Z,29.50
2022-08-23T12:07:44.659Z,29.60
2022-08-23T12:10:11.783Z,29.70
2022-08-23T12:12:43.904Z,29.70
2022-08-23T12:15:13.657Z,29.70
2022-08-23T12:17:43.254Z,29.70
2022-08-23T12:20:17.042Z,29.70
2022-08-23T12:22:58.957Z,29.80
2022-08-23T12:25:26.426Z,30.00
2022-08-23T12:28:07.575Z,30.00
2022-08-23T12:30:52.736Z,30.10
2022-08-23T12:33:52.922Z,30.20
2022-08-23T12:36:31.785Z,30.20
2022-08-23T12:39:08.534Z,30.20
2022-08-23T12:42:09.617Z,30.20
2022-08-23T12:44:36.408Z,30.30
2022-08-23T12:47:18.326Z,30.30
2022-08-23T12:50:15.096Z,30.30
2022-08-23T12:52:42.540Z,30.40
2022-08-23T12:55:17.672Z,30.40
2022-08-23T12:57:58.061Z,30.40
2022-08-23T13:00:28.734Z,30.50
2022-08-23T13:03:04.732Z,30.60
2022-08-23T13:05:48.629Z,30.60
2022-08-23T13:08:33.614Z,30.60
2022-08-23T13:11:07.459Z,30.60
2022-08-23T13:13:39.099Z,30.60
2022-08-23T13:16:31.831Z,30.70
2022-08-23T13:19:23.595Z,30.80
2022-08-23T13:22:19.098Z,30.90
2022-08-23T13:25:26.730Z,30.90
2022-08-23T13:27:47.862Z,31.00
2022-08-23T13:30:14.532Z,31.10
2022-08-23T13:33:03.733Z,31.10
2022-08-23T13:35:46.960Z,31.00
2022-08-23T13:38:21.412Z,31.00
2022-08-23T13:40:54.077Z,31.00
2022-08-23T13:43:31.634Z,30.90
2022-08-23T13:46:09.295Z,30.90
2022-08-23T13:48:37.574Z,30.90
2022-08-23T13:51:39.742Z,31.00
2022-08-23T13:54:13.420Z,31.10
2022-08-23T13:57:00.371Z,31.10
2022-08-23T13:59:52.075Z,31.10
2022-08-23T14:02:21.980Z,31.10
2022-08-23T14:04:49.157Z,31.10
2022-08-23T14:07:16.556Z,31.00
2022-08-23T14:09:43.543Z,31.10
2022-08-23T14:12:16.929Z,31.20
2022-08-23T14:14:44.507Z,31.20
2022-08-23T14:17:13.034Z,31.20
2022-08-23T14:22:34.155Z,31.20
2022-08-23T14:25:01.205Z,31.10
2022-08-23T14:27:28.310Z,31.10
2022-08-23T14:29:55.136Z,31.00
2022-08-23T14:32:22.285Z,31.10
2022-08-23T14:34:49.401Z,31.20
2022-08-23T14:40:04.534Z,31.10
2022-08-23T14:42:31.784Z,31.10
2022-08-23T14:44:58.617Z,31.10
2022-08-23T14:47:26.735Z,31.10
2022-08-23T14:49:54.131Z,31.30
2022-08-23T14:52:21.999Z,31.30
2022-08-23T14:54:49.661Z,31.30
2022-08-23T14:57:16.635Z,31.40
2022-08-23T14:59:44.155Z,31.40
2022-08-23T15:02:13.363Z,31.20
2022-08-23T15:04:41.675Z,31.10
2022-08-23T15:07:23.741Z,31.10
2022-08-23T15:09:54.379Z,31.20
2022-08-23T15:15:15.925Z,31.20
2022-08-23T15:17:52.825Z,31.20
2022-08-23T15:20:22.220Z,31.10
2022-08-23T15:23:03.026Z,31.00
2022-08-23T15:25:32.297Z,31.00
2022-08-23T15:28:01.777Z,31.10
2022-08-23T15:30:30.363Z,31.20
2022-08-23T15:33:00.612Z,31.20
2022-08-23T15:35:29.111Z,31.20
2022-08-23T15:37:57.238Z,31.10
2022-08-23T15:40:25.559Z,31.00
2022-08-23T15:42:53.076Z,31.00
2022-08-23T15:45:20.144Z,30.90
2022-08-23T15:47:51.618Z,30.90
2022-08-23T15:50:20.867Z,31.00
2022-08-23T15:52:47.788Z,30.90
2022-08-23T15:55:15.646Z,31.00
2022-08-23T15:57:47.423Z,31.10
2022-08-23T16:00:17.386Z,31.20
2022-08-23T16:03:06.378Z,31.30
2022-08-23T16:05:32.027Z,31.20
2022-08-23T16:07:59.746Z,31.30
2022-08-23T16:10:28.107Z,31.20
2022-08-23T16:12:55.355Z,31.20
2022-08-23T16:15:22.409Z,31.20
2022-08-23T16:17:49.387Z,31.20
2022-08-23T16:20:17.172Z,31.20
2022-08-23T16:22:44.152Z,31.20
2022-08-23T16:25:11.183Z,31.20
2022-08-23T16:27:38.107Z,31.20
2022-08-23T16:30:07.180Z,31.10
2022-08-23T16:32:36.660Z,31.10
2022-08-23T16:35:04.177Z,31.10
2022-08-23T16:37:31.012Z,31.10
2022-08-23T16:39:57.802Z,31.20
2022-08-23T16:42:24.581Z,31.10
2022-08-23T16:44:51.294Z,31.10
2022-08-23T16:47:18.408Z,31.10
2022-08-23T16:49:45.279Z,31.00
2022-08-23T16:52:12.135Z,31.00
2022-08-23T16:54:39.560Z,31.00
2022-08-23T16:57:06.842Z,31.00
2022-08-23T16:59:39.748Z,31.00
2022-08-23T17:02:10.940Z,31.00
2022-08-23T17:04:38.104Z,31.00
2022-08-23T17:07:05.008Z,30.90
2022-08-23T17:09:31.830Z,30.80
2022-08-23T17:11:58.826Z,30.80
2022-08-23T17:14:26.293Z,30.70
2022-08-23T17:16:53.227Z,30.80
2022-08-23T17:19:20.082Z,30.80
2022-08-23T17:21:46.958Z,30.80
2022-08-23T17:24:13.733Z,30.90
2022-08-23T17:26:40.704Z,31.10
2022-08-23T17:29:09.335Z,31.10
2022-08-23T17:31:37.739Z,31.20
2022-08-23T17:34:06.905Z,31.20
2022-08-23T17:36:39.880Z,31.20
2022-08-23T17:39:09.635Z,31.20
2022-08-23T17:41:36.724Z,31.00
2022-08-23T17:44:05.708Z,30.80
2022-08-23T17:46:40.500Z,30.70
2022-08-23T17:49:07.389Z,30.70
2022-08-23T17:51:35.677Z,30.60
2022-08-23T17:54:03.569Z,30.40
2022-08-23T17:56:30.592Z,30.40
2022-08-23T17:58:57.361Z,30.40
2022-08-23T18:01:24.260Z,30.40
2022-08-23T18:03:51.113Z,30.40
2022-08-23T18:06:18.175Z,30.40
2022-08-23T18:08:45.960Z,30.40
2022-08-23T18:11:13.798Z,30.40
2022-08-23T18:13:40.720Z,30.40
2022-08-23T18:16:07.894Z,30.50
2022-08-23T18:18:35.112Z,30.70
2022-08-23T18:21:09.171Z,30.60
2022-08-23T18:23:36.060Z,30.70
2022-08-23T18:26:08.683Z,30.70
2022-08-23T18:28:35.556Z,30.70
2022-08-23T18:31:03.746Z,30.70
2022-08-23T18:33:46.229Z,30.60
2022-08-23T18:36:14.818Z,30.50
2022-08-23T18:38:41.609Z,30.60
2022-08-23T18:41:08.368Z,30.60
2022-08-23T18:43:37.216Z,30.60
2022-08-23T18:46:05.160Z,30.60
2022-08-23T18:48:32.625Z,30.60
2022-08-23T18:51:00.211Z,30.50
2022-08-23T18:53:28.272Z,30.40
2022-08-23T18:55:55.348Z,30.40
2022-08-23T18:58:23.116Z,30.30
2022-08-23T19:00:52.147Z,30.30
2022-08-23T19:03:19.137Z,30.20
2022-08-23T19:05:45.995Z,30.20
2022-08-23T19:08:13.939Z,30.10
2022-08-23T19:10:42.045Z,30.00
2022-08-23T19:13:10.916Z,29.90
2022-08-23T19:15:40.570Z,29.90
2022-08-23T19:18:07.904Z,29.80
2022-08-23T19:20:35.970Z,29.70
2022-08-23T19:23:02.936Z,29.70
2022-08-23T19:25:31.710Z,29.60
2022-08-23T19:27:58.661Z,29.60
2022-08-23T19:30:28.508Z,29.50
2022-08-23T19:32:56.451Z,29.50
2022-08-23T19:35:23.328Z,29.40
2022-08-23T19:37:50.218Z,29.30
2022-08-23T19:40:17.062Z,29.30
2022-08-23T19:42:43.908Z,29.20
2022-08-23T19:45:11.134Z,29.20
2022-08-23T19:47:38.018Z,29.10
2022-08-23T19:50:05.230Z,29.00
2022-08-23T19:52:32.923Z,29.00
2022-08-23T19:55:05.682Z,29.00
2022-08-23T19:57:35.032Z,29.10
2022-08-23T20:00:09.598Z,29.10
2022-08-23T20:02:36.382Z,29.20
2022-08-23T20:05:03.885Z,29.20
2022-08-23T20:07:31.156Z,29.20
2022-08-23T20:09:58.606Z,29.10
2022-08-23T20:12:27.612Z,29.00
2022-08-23T20:14:55.143Z,29.00
2022-08-23T20:17:23.185Z,28.90
2022-08-23T20:19:49.943Z,28.80
2022-08-23T20:22:35.490Z,28.70
2022-08-23T20:25:02.538Z,28.70
2022-08-23T20:27:30.863Z,28.60
2022-08-23T20:30:00.188Z,28.60
2022-08-23T20:32:27.751Z,28.50
2022-08-23T20:34:54.531Z,28.50
2022-08-23T20:37:21.761Z,28.50
2022-08-23T20:39:48.560Z,28.50
2022-08-23T20:42:15.575Z,28.50
2022-08-23T20:44:42.392Z,28.40
2022-08-23T20:47:09.246Z,28.40
2022-08-23T20:49:36.332Z,28.40
2022-08-23T20:52:03.409Z,28.30
2022-08-23T20:54:30.174Z,28.30
2022-08-23T20:56:56.943Z,28.30
2022-08-23T20:59:23.724Z,28.30
2022-08-23T21:01:50.930Z,28.20
2022-08-23T21:04:18.041Z,28.10
2022-08-23T21:06:48.934Z,28.10
2022-08-23T21:09:19.253Z,28.10
2022-08-23T21:11:47.986Z,28.00
2022-08-23T21:14:17.142Z,28.00
2022-08-23T21:16:46.172Z,27.90
2022-08-23T21:19:14.612Z,27.90
2022-08-23T21:21:42.392Z,27.90
2022-08-23T21:24:11.499Z,27.80
2022-08-23T21:26:39.006Z,27.70
2022-08-23T21:29:07.635Z,27.70
2022-08-23T21:31:35.216Z,27.60
2022-08-23T21:34:02.152Z,27.50
2022-08-23T21:36:29.170Z,27.50
2022-08-23T21:38:56.197Z,27.50
2022-08-23T21:41:29.173Z,27.50
2022-08-23T21:43:56.029Z,27.50
2022-08-23T21:46:22.864Z,27.50
2022-08-23T21:48:49.675Z,27.40
2022-08-23T21:51:16.438Z,27.30
2022-08-23T21:53:43.218Z,27.30
2022-08-23T21:56:09.947Z,27.20
2022-08-23T21:58:36.724Z,27.20
2022-08-23T22:01:03.475Z,27.20
2022-08-23T22:03:30.231Z,27.10
2022-08-23T22:05:56.989Z,27.00
2022-08-23T22:08:23.796Z,27.00
2022-08-23T22:10:57.631Z,27.10
2022-08-23T22:13:26.556Z,27.00
2022-08-23T22:15:53.366Z,27.00
2022-08-23T22:18:20.777Z,26.90
2022-08-23T22:20:47.646Z,26.90
2022-08-23T22:23:14.470Z,26.90
2022-08-23T22:25:41.271Z,26.90
2022-08-23T22:28:08.192Z,26.80
2022-08-23T22:30:35.026Z,26.80
2022-08-23T22:33:02.076Z,26.80
2022-08-23T22:35:32.260Z,26.70
2022-08-23T22:38:13.148Z,26.70
2022-08-23T22:40:46.813Z,26.60
2022-08-23T22:43:13.565Z,26.60
2022-08-23T22:45:53.113Z,26.60
2022-08-23T22:48:20.571Z,26.60
2022-08-23T22:50:48.554Z,26.60
2022-08-23T22:53:15.872Z,26.50
2022-08-23T22:55:42.778Z,26.50
2022-08-23T22:58:09.669Z,26.40
2022-08-23T23:00:42.129Z,26.30
2022-08-23T23:03:09.449Z,26.20
2022-08-23T23:05:37.422Z,26.20
2022-08-23T23:08:23.298Z,26.10
2022-08-23T23:10:50.113Z,26.10
2022-08-23T23:13:16.984Z,26.10
2022-08-23T23:23:09.107Z,26.00
2022-08-23T23:25:36.839Z,26.00
2022-08-23T23:28:05.165Z,25.90
2022-08-23T23:30:32.660Z,25.90
2022-08-23T23:32:59.817Z,25.90
2022-08-23T23:35:28.238Z,25.90
2022-08-23T23:37:56.212Z,25.80
2022-08-23T23:40:24.407Z,25.80
2022-08-23T23:42:51.742Z,25.80
2022-08-23T23:45:19.079Z,25.80
2022-08-23T23:47:46.299Z,25.80
2022-08-23T23:50:14.156Z,25.70
2022-08-23T23:52:41.887Z,25.70
2022-08-23T23:55:11.084Z,25.70
2022-08-23T23:57:38.498Z,25.60
